createdAt,value
2018-03-24T00:01:39.295Z,64.67
2018-03-24T00:04:07.566Z,64.79
2018-03-24T00:06:35.848Z,64.14
2018-03-24T00:09:04.116Z,64.11
2018-03-24T00:11:32.377Z,64.18
2018-03-24T00:14:00.676Z,64.79
2018-03-24T00:16:28.944Z,64.79
2018-03-24T00:18:57.219Z,64.50
2018-03-24T00:21:25.488Z,64.45
2018-03-24T00:23:53.762Z,63.67
2018-03-24T00:26:22.036Z,63.95
2018-03-24T00:28:50.324Z,64.37
2018-03-24T00:31:18.592Z,65.56
2018-03-24T00:33:46.864Z,63.86
2018-03-24T00:36:15.151Z,64.08
2018-03-24T00:38:43.418Z,64.67
2018-03-24T00:41:11.700Z,65.92
2018-03-24T00:43:39.964Z,65.29
2018-03-24T00:46:08.240Z,65.44
2018-03-24T00:48:36.511Z,64.59
2018-03-24T00:51:05.723Z,64.77
2018-03-24T00:53:33.992Z,65.66
2018-03-24T00:56:02.281Z,64.99
2018-03-24T00:58:30.549Z,65.51
2018-03-24T01:00:58.820Z,65.06
2018-03-24T01:03:27.092Z,65.15
2018-03-24T01:05:55.364Z,64.66
2018-03-24T01:08:23.644Z,65.36
2018-03-24T01:10:51.924Z,64.41
2018-03-24T01:13:20.229Z,65.73
2018-03-24T01:15:48.503Z,64.82
2018-03-24T01:18:16.764Z,65.01
2018-03-24T01:20:45.043Z,65.49
2018-03-24T01:23:13.332Z,64.78
2018-03-24T01:25:41.620Z,66.22
2018-03-24T01:28:10.186Z,66.16
2018-03-24T01:30:38.452Z,66.34
2018-03-24T01:33:06.774Z,67.36
2018-03-24T01:35:35.043Z,68.04
2018-03-24T01:38:03.343Z,66.89
2018-03-24T01:40:31.635Z,68.41
2018-03-24T01:42:59.911Z,67.83
2018-03-24T01:45:28.184Z,67.16
2018-03-24T01:47:56.477Z,66.79
2018-03-24T01:50:24.739Z,67.46
2018-03-24T01:52:53.029Z,68.25
2018-03-24T01:55:21.295Z,68.01
2018-03-24T01:57:49.580Z,68.04
2018-03-24T02:00:17.846Z,66.76
2018-03-24T02:02:46.119Z,67.74
2018-03-24T02:05:14.404Z,68.13
2018-03-24T02:07:42.676Z,68.89
2018-03-24T02:10:10.960Z,71.51
2018-03-24T02:12:39.244Z,70.56
2018-03-24T02:15:07.524Z,70.62
2018-03-24T02:17:35.798Z,70.29
2018-03-24T02:20:04.072Z,69.80
2018-03-24T02:22:32.350Z,69.94
2018-03-24T02:25:13.379Z,70.32
2018-03-24T02:27:41.651Z,69.70
2018-03-24T02:30:09.941Z,69.98
2018-03-24T02:32:38.222Z,70.21
2018-03-24T02:35:06.483Z,69.83
2018-03-24T02:37:34.768Z,69.53
2018-03-24T02:40:03.039Z,69.79
2018-03-24T02:42:31.320Z,70.90
2018-03-24T02:44:59.601Z,69.85
2018-03-24T02:47:27.880Z,70.83
2018-03-24T02:49:56.152Z,70.47
2018-03-24T02:52:24.437Z,70.17
2018-03-24T02:54:52.717Z,70.05
2018-03-24T02:57:20.983Z,70.87
2018-03-24T02:59:49.257Z,70.21
2018-03-24T03:02:17.533Z,70.67
2018-03-24T03:04:45.819Z,71.20
2018-03-24T03:07:14.092Z,71.12
2018-03-24T03:09:42.371Z,71.47
2018-03-24T03:12:10.644Z,70.72
2018-03-24T03:14:38.936Z,70.87
2018-03-24T03:17:07.208Z,71.54
2018-03-24T03:19:35.484Z,71.04
2018-03-24T03:22:03.768Z,70.44
2018-03-24T03:24:32.040Z,70.25
2018-03-24T03:27:00.323Z,70.74
2018-03-24T03:29:28.596Z,70.25
2018-03-24T03:32:01.883Z,70.56
2018-03-24T03:34:30.160Z,70.82
2018-03-24T03:37:03.004Z,71.56
2018-03-24T03:39:31.280Z,69.11
2018-03-24T03:41:59.560Z,69.98
2018-03-24T03:44:27.840Z,69.95
2018-03-24T03:46:56.116Z,70.29
2018-03-24T03:49:24.392Z,70.12
2018-03-24T03:51:52.668Z,70.84
2018-03-24T03:54:20.947Z,69.93
2018-03-24T03:56:49.227Z,69.66
2018-03-24T03:59:17.511Z,69.87
2018-03-24T04:01:45.780Z,69.41
2018-03-24T04:04:14.051Z,69.80
2018-03-24T04:06:42.324Z,69.52
2018-03-24T04:09:10.591Z,69.50
2018-03-24T04:11:38.876Z,69.30
2018-03-24T04:14:07.156Z,69.67
2018-03-24T04:16:35.440Z,69.22
2018-03-24T04:19:03.708Z,70.02
2018-03-24T04:21:31.972Z,69.58
2018-03-24T04:24:00.260Z,69.80
2018-03-24T04:26:28.542Z,69.80
2018-03-24T04:28:56.820Z,69.66
2018-03-24T04:31:25.096Z,70.04
2018-03-24T04:33:53.372Z,68.09
2018-03-24T04:36:21.645Z,68.09
2018-03-24T04:38:49.931Z,68.55
2018-03-24T04:41:18.208Z,68.15
2018-03-24T04:43:46.468Z,68.50
2018-03-24T04:46:14.820Z,68.24
2018-03-24T04:48:43.093Z,68.61
2018-03-24T04:51:11.363Z,68.98
2018-03-24T04:53:39.640Z,69.28
2018-03-24T04:56:07.935Z,69.97
2018-03-24T04:58:36.200Z,69.39
2018-03-24T05:01:04.472Z,69.81
2018-03-24T05:03:32.768Z,70.45
2018-03-24T05:06:01.031Z,70.15
2018-03-24T05:08:29.320Z,69.27
2018-03-24T05:10:57.595Z,69.56
2018-03-24T05:13:25.888Z,70.22
2018-03-24T05:15:54.161Z,70.95
2018-03-24T05:18:22.432Z,70.51
2018-03-24T05:20:50.720Z,71.09
2018-03-24T05:23:18.997Z,71.36
2018-03-24T05:25:47.280Z,70.30
2018-03-24T05:28:15.556Z,70.70
2018-03-24T05:30:43.844Z,70.78
2018-03-24T05:33:12.134Z,70.05
2018-03-24T05:35:40.408Z,70.78
2018-03-24T05:38:08.685Z,70.41
2018-03-24T05:40:36.958Z,70.95
2018-03-24T05:43:05.247Z,71.35
2018-03-24T05:45:33.520Z,71.21
2018-03-24T05:48:01.814Z,70.65
2018-03-24T05:50:30.091Z,70.70
2018-03-24T05:52:58.375Z,70.12
2018-03-24T05:55:27.513Z,68.48
2018-03-24T05:57:55.796Z,68.22
2018-03-24T06:00:24.087Z,68.36
2018-03-24T06:02:52.362Z,68.43
2018-03-24T06:05:20.640Z,68.81
2018-03-24T06:07:48.909Z,68.82
2018-03-24T06:10:17.195Z,67.85
2018-03-24T06:12:45.464Z,68.54
2018-03-24T06:15:13.747Z,68.43
2018-03-24T06:17:42.012Z,67.96
2018-03-24T06:20:10.310Z,67.77
2018-03-24T06:22:38.580Z,68.39
2018-03-24T06:25:06.848Z,68.28
2018-03-24T06:27:35.141Z,68.16
2018-03-24T06:30:03.918Z,67.99
2018-03-24T06:32:32.212Z,68.42
2018-03-24T06:35:00.475Z,67.60
2018-03-24T06:37:28.760Z,67.57
2018-03-24T06:39:57.028Z,66.73
2018-03-24T06:42:25.316Z,65.53
2018-03-24T06:44:53.626Z,65.13
2018-03-24T06:47:21.860Z,66.04
2018-03-24T06:49:50.152Z,65.37
2018-03-24T06:52:18.438Z,65.80
2018-03-24T06:54:46.707Z,63.91
2018-03-24T06:57:14.980Z,61.67
2018-03-24T06:59:43.269Z,60.85
2018-03-24T07:02:11.545Z,60.51
2018-03-24T07:04:39.833Z,57.17
2018-03-24T07:07:08.120Z,57.92
2018-03-24T07:09:36.392Z,54.78
2018-03-24T07:12:04.675Z,57.59
2018-03-24T07:14:32.944Z,54.84
2018-03-24T07:17:01.246Z,55.96
2018-03-24T07:19:29.528Z,55.08
2018-03-24T07:21:57.825Z,56.11
2018-03-24T07:24:26.121Z,54.49
2018-03-24T07:26:54.399Z,54.87
2018-03-24T07:29:22.694Z,53.50
2018-03-24T07:31:50.991Z,52.75
2018-03-24T07:34:19.272Z,53.84
2018-03-24T07:36:47.585Z,52.27
2018-03-24T07:39:15.853Z,52.63
2018-03-24T07:41:44.133Z,51.45
2018-03-24T07:44:12.428Z,51.14
2018-03-24T07:46:40.710Z,51.09
2018-03-24T07:49:09.094Z,49.53
2018-03-24T07:51:38.107Z,50.67
2018-03-24T07:54:06.564Z,50.11
2018-03-24T07:56:34.867Z,48.81
2018-03-24T07:59:03.147Z,48.59
2018-03-24T08:01:31.453Z,50.55
2018-03-24T08:03:59.752Z,52.33
2018-03-24T08:06:28.032Z,51.68
2018-03-24T08:08:56.308Z,50.69
2018-03-24T08:11:24.580Z,49.78
2018-03-24T08:13:52.877Z,48.25
2018-03-24T08:16:21.153Z,46.48
2018-03-24T08:18:49.446Z,45.21
2018-03-24T08:21:17.741Z,45.81
2018-03-24T08:23:46.097Z,45.85
2018-03-24T08:26:14.374Z,46.37
2018-03-24T08:28:42.656Z,43.69
2018-03-24T08:31:10.961Z,44.02
2018-03-24T08:33:39.248Z,46.72
2018-03-24T08:36:07.536Z,46.76
2018-03-24T08:38:35.822Z,48.44
2018-03-24T08:41:04.123Z,46.23
2018-03-24T08:43:32.401Z,44.11
2018-03-24T08:46:00.704Z,41.75
2018-03-24T08:48:28.972Z,44.27
2018-03-24T08:50:57.258Z,44.51
2018-03-24T08:53:25.544Z,44.27
2018-03-24T08:55:53.830Z,46.92
2018-03-24T08:58:22.107Z,45.51
2018-03-24T09:00:50.396Z,46.20
2018-03-24T09:03:18.724Z,46.08
2018-03-24T09:05:46.996Z,44.85
2018-03-24T09:08:15.272Z,45.84
2018-03-24T09:10:43.565Z,47.60
2018-03-24T09:13:11.876Z,48.03
2018-03-24T09:15:57.304Z,47.25
2018-03-24T09:18:25.579Z,46.48
2018-03-24T09:20:53.868Z,45.27
2018-03-24T09:23:22.163Z,46.89
2018-03-24T09:25:50.428Z,45.37
2018-03-24T09:28:18.708Z,46.10
2018-03-24T09:30:47.000Z,45.37
2018-03-24T09:33:15.281Z,43.77
2018-03-24T09:35:43.587Z,43.59
2018-03-24T09:38:11.861Z,43.37
2018-03-24T09:40:40.145Z,43.01
2018-03-24T09:43:08.442Z,43.18
2018-03-24T09:45:36.745Z,44.29
2018-03-24T09:48:05.037Z,44.34
2018-03-24T09:53:27.321Z,43.23
2018-03-24T09:55:55.610Z,43.35
2018-03-24T09:58:23.894Z,43.96
2018-03-24T10:00:52.196Z,44.05
2018-03-24T10:03:20.516Z,44.39
2018-03-24T10:05:48.806Z,42.85
2018-03-24T10:08:17.086Z,43.80
2018-03-24T10:10:45.372Z,43.87
2018-03-24T10:13:13.653Z,43.33
2018-03-24T10:15:55.601Z,43.50
2018-03-24T10:18:29.188Z,43.37
2018-03-24T10:21:00.107Z,42.68
2018-03-24T10:26:56.328Z,44.46
2018-03-24T10:29:24.600Z,43.39
2018-03-24T10:32:02.661Z,42.51
2018-03-24T10:34:31.848Z,41.22
2018-03-24T10:37:00.160Z,42.32
2018-03-24T10:39:28.462Z,42.16
2018-03-24T10:41:56.790Z,41.90
2018-03-24T10:44:25.081Z,42.65
2018-03-24T10:46:53.412Z,41.75
2018-03-24T10:49:21.706Z,41.37
2018-03-24T10:51:56.453Z,41.57
2018-03-24T10:54:24.758Z,40.66
2018-03-24T10:57:02.813Z,41.43
2018-03-24T10:59:31.120Z,41.16
2018-03-24T11:02:03.524Z,53.06
2018-03-24T11:04:32.464Z,41.93
2018-03-24T11:07:01.458Z,40.92
2018-03-24T11:09:29.747Z,41.61
2018-03-24T11:11:58.047Z,42.91
2018-03-24T11:14:26.305Z,41.02
2018-03-24T11:16:54.611Z,41.67
2018-03-24T11:19:22.889Z,42.75
2018-03-24T11:21:51.172Z,41.44
2018-03-24T11:24:19.452Z,40.36
2018-03-24T11:26:47.740Z,41.87
2018-03-24T11:29:16.008Z,43.30
2018-03-24T11:31:44.309Z,39.68
2018-03-24T11:34:12.570Z,40.16
2018-03-24T11:36:40.844Z,40.78
2018-03-24T11:39:09.158Z,40.65
2018-03-24T11:41:37.432Z,39.10
2018-03-24T11:44:05.715Z,38.79
2018-03-24T11:46:33.996Z,37.97
2018-03-24T11:49:02.281Z,39.10
2018-03-24T11:51:30.544Z,49.10
2018-03-24T11:53:58.836Z,39.70
2018-03-24T11:56:27.112Z,43.24
2018-03-24T11:58:55.408Z,38.95
2018-03-24T12:01:25.639Z,39.95
2018-03-24T12:03:53.904Z,40.03
2018-03-24T12:06:22.189Z,40.12
2018-03-24T12:08:50.456Z,39.98
2018-03-24T12:11:18.737Z,42.03
2018-03-24T12:13:47.007Z,40.62
2018-03-24T12:16:15.296Z,39.42
2018-03-24T12:18:43.572Z,40.01
2018-03-24T12:21:11.844Z,40.62
2018-03-24T12:23:40.129Z,40.21
2018-03-24T12:26:08.402Z,39.47
2018-03-24T12:28:36.687Z,39.67
2018-03-24T12:31:04.952Z,40.57
2018-03-24T12:33:33.236Z,39.94
2018-03-24T12:36:01.510Z,40.28
2018-03-24T12:38:29.792Z,38.52
2018-03-24T12:40:58.056Z,44.77
2018-03-24T12:43:26.336Z,39.20
2018-03-24T12:45:54.620Z,37.98
2018-03-24T12:48:22.893Z,39.46
2018-03-24T12:50:51.193Z,38.35
2018-03-24T12:53:19.466Z,37.64
2018-03-24T12:55:47.740Z,38.15
2018-03-24T12:58:16.014Z,37.80
2018-03-24T13:00:44.296Z,37.16
2018-03-24T13:03:12.565Z,36.41
2018-03-24T13:05:40.838Z,36.90
2018-03-24T13:08:09.116Z,37.40
2018-03-24T13:10:37.414Z,36.54
2018-03-24T13:13:05.692Z,35.72
2018-03-24T13:15:33.959Z,35.65
2018-03-24T13:18:02.297Z,35.79
2018-03-24T13:20:30.568Z,36.23
2018-03-24T13:22:58.835Z,35.06
2018-03-24T13:25:27.112Z,34.95
2018-03-24T13:27:55.381Z,34.00
2018-03-24T13:30:23.669Z,34.14
2018-03-24T13:32:51.936Z,35.05
2018-03-24T13:35:20.220Z,34.94
2018-03-24T13:37:48.497Z,34.82
2018-03-24T13:40:16.793Z,33.96
2018-03-24T13:42:45.079Z,34.82
2018-03-24T13:45:13.343Z,34.66
2018-03-24T13:47:41.627Z,34.82
2018-03-24T13:50:09.900Z,35.85
2018-03-24T13:52:38.180Z,36.72
2018-03-24T13:55:06.452Z,35.11
2018-03-24T13:57:34.737Z,36.06
2018-03-24T14:00:02.999Z,36.39
2018-03-24T14:02:31.296Z,36.96
2018-03-24T14:04:59.569Z,36.41
2018-03-24T14:07:27.836Z,36.49
2018-03-24T14:09:56.116Z,35.50
2018-03-24T14:12:24.391Z,36.17
2018-03-24T14:14:52.664Z,35.87
2018-03-24T14:17:20.932Z,36.25
2018-03-24T14:19:49.216Z,35.85
2018-03-24T14:22:17.492Z,35.09
2018-03-24T14:24:45.773Z,35.48
2018-03-24T14:27:14.073Z,34.62
2018-03-24T14:29:42.356Z,34.97
2018-03-24T14:32:10.631Z,35.75
2018-03-24T14:34:38.900Z,34.67
2018-03-24T14:37:07.180Z,34.67
2018-03-24T14:39:35.460Z,34.66
2018-03-24T14:42:03.744Z,34.02
2018-03-24T14:44:32.024Z,34.74
2018-03-24T14:47:00.299Z,34.43
2018-03-24T14:49:28.564Z,33.85
2018-03-24T14:51:56.843Z,33.40
2018-03-24T14:54:25.164Z,33.82
2018-03-24T14:56:53.380Z,33.62
2018-03-24T14:59:21.660Z,33.59
2018-03-24T15:01:49.929Z,33.78
2018-03-24T15:04:18.217Z,33.75
2018-03-24T15:06:46.488Z,33.52
2018-03-24T15:09:14.776Z,33.45
2018-03-24T15:11:43.052Z,33.79
2018-03-24T15:14:11.337Z,34.09
2018-03-24T15:16:39.604Z,33.65
2018-03-24T15:19:07.879Z,34.20
2018-03-24T15:21:36.774Z,34.09
2018-03-24T15:24:05.013Z,33.83
2018-03-24T15:26:33.296Z,33.40
2018-03-24T15:29:13.395Z,33.38
2018-03-24T15:31:53.499Z,33.30
2018-03-24T15:34:33.446Z,33.59
2018-03-24T15:37:01.732Z,33.97
2018-03-24T15:39:30.005Z,34.67
2018-03-24T15:41:58.283Z,34.86
2018-03-24T15:44:26.563Z,34.88
2018-03-24T15:46:54.832Z,34.75
2018-03-24T15:49:23.128Z,35.07
2018-03-24T15:51:51.404Z,35.09
2018-03-24T15:54:19.732Z,34.38
2018-03-24T15:56:47.956Z,34.98
2018-03-24T15:59:16.238Z,34.50
2018-03-24T16:01:44.536Z,34.69
2018-03-24T16:04:12.787Z,34.82
2018-03-24T16:06:41.052Z,35.38
2018-03-24T16:09:09.320Z,35.22
2018-03-24T16:11:38.333Z,35.01
2018-03-24T16:14:10.015Z,35.26
2018-03-24T16:16:38.303Z,35.89
2018-03-24T16:19:06.611Z,35.80
2018-03-24T16:21:34.894Z,35.94
2018-03-24T16:24:03.172Z,35.92
2018-03-24T16:26:31.464Z,36.09
2018-03-24T16:28:59.741Z,35.57
2018-03-24T16:31:28.012Z,36.18
2018-03-24T16:33:56.309Z,35.95
2018-03-24T16:36:24.587Z,35.79
2018-03-24T16:38:52.881Z,36.20
2018-03-24T16:41:21.143Z,36.11
2018-03-24T16:43:49.425Z,35.71
2018-03-24T16:46:17.700Z,36.14
2018-03-24T16:48:47.002Z,35.81
2018-03-24T16:51:15.280Z,36.25
2018-03-24T16:53:43.583Z,36.44
2018-03-24T16:56:11.888Z,36.50
2018-03-24T16:58:40.164Z,36.17
2018-03-24T17:01:10.386Z,36.46
2018-03-24T17:03:41.907Z,36.90
2018-03-24T17:06:10.187Z,37.36
2018-03-24T17:08:38.461Z,37.11
2018-03-24T17:11:06.766Z,37.18
2018-03-24T17:13:35.038Z,37.63
2018-03-24T17:16:03.305Z,39.04
2018-03-24T17:18:31.592Z,37.64
2018-03-24T17:20:59.896Z,37.92
2018-03-24T17:23:28.174Z,38.37
2018-03-24T17:25:56.448Z,39.06
2018-03-24T17:28:24.724Z,38.63
2018-03-24T17:30:52.996Z,38.23
2018-03-24T17:33:21.280Z,38.29
2018-03-24T17:35:49.551Z,38.37
2018-03-24T17:38:17.837Z,38.34
2018-03-24T17:40:46.168Z,38.61
2018-03-24T17:43:14.445Z,38.74
2018-03-24T17:45:42.728Z,39.11
2018-03-24T17:48:11.013Z,39.25
2018-03-24T17:50:39.303Z,39.24
2018-03-24T17:53:07.581Z,39.17
2018-03-24T17:55:35.851Z,39.20
2018-03-24T17:58:04.150Z,39.67
2018-03-24T18:00:32.434Z,39.30
2018-03-24T18:03:00.704Z,39.66
2018-03-24T18:05:28.979Z,39.35
2018-03-24T18:07:57.296Z,39.90
2018-03-24T18:10:25.572Z,39.68
2018-03-24T18:12:53.860Z,41.28
2018-03-24T18:15:22.128Z,40.64
2018-03-24T18:17:50.414Z,40.37
2018-03-24T18:20:18.696Z,41.02
2018-03-24T18:22:46.972Z,40.28
2018-03-24T18:25:15.263Z,40.24
2018-03-24T18:27:43.528Z,40.64
2018-03-24T18:30:11.812Z,41.00
2018-03-24T18:32:40.096Z,40.45
2018-03-24T18:35:08.409Z,40.76
2018-03-24T18:37:36.665Z,40.71
2018-03-24T18:40:04.929Z,41.17
2018-03-24T18:42:33.216Z,41.50
2018-03-24T18:45:01.478Z,42.65
2018-03-24T18:47:29.753Z,42.10
2018-03-24T18:50:04.284Z,42.11
2018-03-24T18:52:49.908Z,41.95
2018-03-24T18:55:18.189Z,41.82
2018-03-24T18:57:46.479Z,42.57
2018-03-24T19:00:17.954Z,43.03
2018-03-24T19:02:46.201Z,44.02
2018-03-24T19:05:14.472Z,43.27
2018-03-24T19:07:42.760Z,43.37
2018-03-24T19:10:11.044Z,44.49
2018-03-24T19:12:39.322Z,45.03
2018-03-24T19:15:07.612Z,45.68
2018-03-24T19:17:35.888Z,44.36
2018-03-24T19:20:04.187Z,44.12
2018-03-24T19:22:32.450Z,45.11
2018-03-24T19:25:00.756Z,46.31
2018-03-24T19:27:30.766Z,46.20
2018-03-24T19:29:59.292Z,46.11
2018-03-24T19:32:27.592Z,46.95
2018-03-24T19:34:55.887Z,46.83
2018-03-24T19:37:24.163Z,48.00
2018-03-24T19:39:52.436Z,46.25
2018-03-24T19:42:20.716Z,46.19
2018-03-24T19:44:48.988Z,47.21
2018-03-24T19:47:17.282Z,45.30
2018-03-24T19:49:45.562Z,45.98
2018-03-24T19:52:13.840Z,46.72
2018-03-24T19:54:42.140Z,46.66
2018-03-24T19:57:10.415Z,45.55
2018-03-24T19:59:38.703Z,45.86
2018-03-24T20:02:06.964Z,45.95
2018-03-24T20:04:35.244Z,45.82
2018-03-24T20:07:03.517Z,46.08
2018-03-24T20:09:31.793Z,46.93
2018-03-24T20:12:00.067Z,46.48
2018-03-24T20:14:28.351Z,46.32
2018-03-24T20:16:56.620Z,46.78
2018-03-24T20:19:24.893Z,47.13
2018-03-24T20:21:53.169Z,47.36
2018-03-24T20:24:21.432Z,47.38
2018-03-24T20:26:49.717Z,47.46
2018-03-24T20:29:17.987Z,47.43
2018-03-24T20:31:46.260Z,48.09
2018-03-24T20:34:14.520Z,48.50
2018-03-24T20:36:42.819Z,48.20
2018-03-24T20:39:11.092Z,48.28
2018-03-24T20:41:39.367Z,48.84
2018-03-24T20:44:07.645Z,49.47
2018-03-24T20:46:35.916Z,50.01
2018-03-24T20:49:04.196Z,50.26
2018-03-24T20:51:32.468Z,50.59
2018-03-24T20:54:00.748Z,50.78
2018-03-24T20:56:29.025Z,51.74
2018-03-24T20:58:57.312Z,51.82
2018-03-24T21:01:25.629Z,51.83
2018-03-24T21:03:53.864Z,52.19
2018-03-24T21:06:22.149Z,52.56
2018-03-24T21:08:50.420Z,52.69
2018-03-24T21:11:18.708Z,53.28
2018-03-24T21:13:46.977Z,53.64
2018-03-24T21:16:15.270Z,54.06
2018-03-24T21:18:43.528Z,54.06
2018-03-24T21:21:11.823Z,54.54
2018-03-24T21:23:40.112Z,54.74
2018-03-24T21:26:08.376Z,54.88
2018-03-24T21:28:36.652Z,55.58
2018-03-24T21:31:04.929Z,56.51
2018-03-24T21:33:33.201Z,56.83
2018-03-24T21:36:01.467Z,56.99
2018-03-24T21:38:29.768Z,57.50
2018-03-24T21:40:58.053Z,56.79
2018-03-24T21:43:26.355Z,57.00
2018-03-24T21:45:54.630Z,56.94
2018-03-24T21:48:22.901Z,56.84
2018-03-24T21:50:51.184Z,56.65
2018-03-24T21:53:19.447Z,56.93
2018-03-24T21:55:47.728Z,57.29
2018-03-24T21:58:16.000Z,57.40
2018-03-24T22:00:44.287Z,58.45
2018-03-24T22:03:12.564Z,57.22
2018-03-24T22:05:40.848Z,57.12
2018-03-24T22:08:09.119Z,57.88
2018-03-24T22:10:37.410Z,57.08
2018-03-24T22:13:05.680Z,57.31
2018-03-24T22:15:33.954Z,57.23
2018-03-24T22:18:02.248Z,57.25
2018-03-24T22:20:30.515Z,57.10
2018-03-24T22:22:58.807Z,56.98
2018-03-24T22:25:27.171Z,57.76
2018-03-24T22:27:55.457Z,57.67
2018-03-24T22:30:23.715Z,57.33
2018-03-24T22:32:52.955Z,57.61
2018-03-24T22:35:21.216Z,57.06
2018-03-24T22:37:49.492Z,57.47
2018-03-24T22:40:17.776Z,57.70
2018-03-24T22:42:46.043Z,57.78
2018-03-24T22:45:14.402Z,57.31
2018-03-24T22:47:42.603Z,57.74
2018-03-24T22:50:10.885Z,58.18
2018-03-24T22:52:39.148Z,58.10
2018-03-24T22:55:07.430Z,58.75
2018-03-24T22:57:35.696Z,57.93
2018-03-24T23:00:03.965Z,57.54
2018-03-24T23:02:32.247Z,57.15
2018-03-24T23:05:00.524Z,57.92
2018-03-24T23:07:28.812Z,58.40
2018-03-24T23:09:57.080Z,59.71
2018-03-24T23:12:25.371Z,59.62
2018-03-24T23:14:53.702Z,59.42
2018-03-24T23:17:21.916Z,59.55
2018-03-24T23:19:50.192Z,59.96
2018-03-24T23:22:18.464Z,59.98
2018-03-24T23:24:46.745Z,60.30
2018-03-24T23:27:15.004Z,59.36
2018-03-24T23:29:43.292Z,59.23
2018-03-24T23:32:11.563Z,58.45
2018-03-24T23:34:39.848Z,58.69
2018-03-24T23:37:08.112Z,59.39
2018-03-24T23:39:39.850Z,59.19
2018-03-24T23:42:08.111Z,59.18
2018-03-24T23:44:36.387Z,58.67
2018-03-24T23:47:04.663Z,59.97
2018-03-24T23:49:32.931Z,59.82
2018-03-24T23:52:01.217Z,59.91
2018-03-24T23:54:29.499Z,60.63
2018-03-24T23:56:57.784Z,59.14
2018-03-24T23:59:26.061Z,59.67
